createdAt,value
2019-04-22T00:01:30.795Z,34.97
2019-04-22T00:04:03.877Z,32.90
2019-04-22T00:06:58.319Z,34.70
2019-04-22T00:09:32.400Z,29.90
2019-04-22T00:12:11.239Z,33.20
2019-04-22T00:14:30.792Z,37.00
2019-04-22T00:17:10.019Z,33.53
2019-04-22T00:19:40.661Z,34.57
2019-04-22T00:22:20.179Z,31.80
2019-04-22T00:24:36.959Z,34.20
2019-04-22T00:27:20.175Z,34.20
2019-04-22T00:32:19.508Z,37.57
2019-04-22T00:34:54.781Z,36.33
2019-04-22T00:37:30.101Z,36.77
2019-04-22T00:39:57.534Z,36.23
2019-04-22T00:42:36.351Z,34.30
2019-04-22T00:45:08.136Z,35.37
2019-04-22T00:50:23.766Z,33.23
2019-04-22T00:52:38.886Z,33.70
2019-04-22T00:55:23.051Z,38.27
2019-04-22T00:57:47.458Z,34.57
2019-04-22T01:00:18.169Z,32.97
2019-04-22T01:02:59.324Z,37.63
2019-04-22T01:05:30.162Z,36.33
2019-04-22T01:08:01.186Z,32.80
2019-04-22T01:10:30.624Z,32.23
2019-04-22T01:12:56.998Z,33.40
2019-04-22T01:15:36.823Z,35.87
2019-04-22T01:18:02.193Z,36.67
2019-04-22T01:21:00.511Z,37.10
2019-04-22T01:23:05.524Z,32.03
2019-04-22T01:25:37.474Z,39.20
2019-04-22T01:28:02.401Z,35.30
2019-04-22T01:30:31.160Z,34.83
2019-04-22T01:33:02.733Z,36.53
2019-04-22T01:35:35.843Z,36.53
2019-04-22T01:38:13.210Z,34.30
2019-04-22T01:41:04.503Z,35.40
2019-04-22T01:43:33.613Z,33.57
2019-04-22T01:46:01.763Z,34.23
2019-04-22T01:48:32.976Z,37.60
2019-04-22T01:51:01.400Z,37.07
2019-04-22T01:53:36.062Z,36.63
2019-04-22T01:56:06.122Z,37.23
2019-04-22T01:58:36.205Z,36.57
2019-04-22T02:01:13.685Z,34.27
2019-04-22T02:03:46.983Z,36.13
2019-04-22T02:06:13.692Z,36.63
2019-04-22T02:08:55.243Z,36.97
2019-04-22T02:11:27.858Z,32.90
2019-04-22T02:13:56.640Z,33.13
2019-04-22T02:16:27.842Z,35.33
2019-04-22T02:19:01.207Z,33.70
2019-04-22T02:21:34.265Z,34.90
2019-04-22T02:24:07.005Z,39.53
2019-04-22T02:26:40.665Z,36.63
2019-04-22T02:29:06.469Z,38.83
2019-04-22T02:31:44.149Z,37.30
2019-04-22T02:34:37.603Z,34.13
2019-04-22T02:37:04.993Z,38.17
2019-04-22T02:39:19.955Z,34.77
2019-04-22T02:41:49.795Z,34.77
2019-04-22T02:49:31.179Z,35.50
2019-04-22T02:52:06.391Z,36.77
2019-04-22T02:57:19.362Z,39.50
2019-04-22T02:59:44.401Z,37.80
2019-04-22T03:02:15.064Z,37.20
2019-04-22T03:04:47.282Z,37.30
2019-04-22T03:07:08.810Z,34.97
2019-04-22T03:09:47.759Z,38.57
2019-04-22T03:12:29.129Z,35.87
2019-04-22T03:14:48.555Z,37.40
2019-04-22T03:17:25.145Z,44.07
2019-04-22T03:22:20.976Z,42.13
2019-04-22T03:27:29.716Z,39.13
2019-04-22T03:37:53.207Z,43.60
2019-04-22T03:42:55.938Z,42.43
2019-04-22T03:53:06.171Z,41.67
2019-04-22T03:55:33.151Z,42.23
2019-04-22T03:57:57.139Z,42.03
2019-04-22T04:00:50.136Z,39.70
2019-04-22T04:03:06.882Z,41.83
2019-04-22T04:05:45.484Z,44.93
2019-04-22T04:08:14.708Z,46.70
2019-04-22T04:15:44.057Z,43.83
2019-04-22T04:18:30.850Z,42.03
2019-04-22T04:23:31.007Z,43.57
2019-04-22T04:25:54.309Z,44.07
2019-04-22T04:31:06.913Z,42.90
2019-04-22T04:33:38.786Z,44.47
2019-04-22T04:36:02.627Z,43.53
2019-04-22T04:38:46.260Z,44.50
2019-04-22T04:43:48.104Z,43.50
2019-04-22T04:47:39.235Z,46.90
2019-04-22T04:48:51.592Z,47.40
2019-04-22T04:51:24.652Z,43.93
2019-04-22T04:53:58.320Z,46.83
2019-04-22T04:56:33.968Z,47.60
2019-04-22T05:06:39.987Z,47.73
2019-04-22T05:11:46.131Z,45.37
2019-04-22T05:16:42.905Z,44.37
2019-04-22T05:19:15.721Z,48.20
2019-04-22T05:21:40.557Z,42.27
2019-04-22T05:24:19.418Z,42.10
2019-04-22T05:29:16.993Z,46.63
2019-04-22T05:31:55.363Z,52.37
2019-04-22T05:39:17.154Z,49.57
2019-04-22T05:41:55.052Z,49.20
2019-04-22T05:44:22.772Z,52.33
2019-04-22T05:46:53.285Z,48.00
2019-04-22T05:49:29.950Z,48.63
2019-04-22T05:52:02.775Z,48.20
2019-04-22T05:54:32.690Z,45.47
2019-04-22T05:57:10.975Z,50.50
2019-04-22T05:59:44.598Z,42.60
2019-04-22T06:02:21.093Z,45.47
2019-04-22T06:04:48.426Z,41.87
2019-04-22T06:07:14.983Z,41.13
2019-04-22T06:09:53.278Z,43.50
2019-04-22T06:12:17.392Z,43.30
2019-04-22T06:14:53.745Z,40.50
2019-04-22T06:17:31.725Z,42.93
2019-04-22T06:20:07.597Z,41.70
2019-04-22T06:22:50.479Z,39.57
2019-04-22T06:25:12.626Z,40.00
2019-04-22T06:27:41.299Z,39.93
2019-04-22T06:30:11.165Z,37.60
2019-04-22T06:32:46.877Z,43.53
2019-04-22T06:35:23.278Z,41.43
2019-04-22T06:37:55.022Z,38.80
2019-04-22T06:40:22.045Z,39.87
2019-04-22T06:42:53.391Z,40.70
2019-04-22T06:45:24.573Z,38.90
2019-04-22T06:48:12.799Z,36.80
2019-04-22T06:50:32.210Z,38.37
2019-04-22T06:53:06.460Z,42.17
2019-04-22T06:58:13.780Z,34.90
2019-04-22T07:00:42.853Z,36.23
2019-04-22T07:05:49.472Z,35.97
2019-04-22T07:08:39.387Z,36.57
2019-04-22T07:13:23.305Z,35.30
2019-04-22T07:16:00.326Z,38.03
2019-04-22T07:18:32.698Z,35.93
2019-04-22T07:26:05.292Z,32.67
2019-04-22T07:28:29.467Z,31.97
2019-04-22T07:31:10.276Z,31.53
2019-04-22T07:36:29.654Z,33.73
2019-04-22T07:38:36.156Z,33.90
2019-04-22T07:41:16.959Z,31.30
2019-04-22T07:46:18.295Z,27.27
2019-04-22T07:48:53.912Z,26.13
2019-04-22T07:51:30.147Z,27.17
2019-04-22T07:53:56.101Z,27.90
2019-04-22T07:56:33.176Z,29.83
2019-04-22T07:59:04.097Z,26.60
2019-04-22T08:01:39.333Z,25.77
2019-04-22T08:04:21.336Z,27.57
2019-04-22T08:06:47.819Z,28.60
2019-04-22T08:09:19.852Z,24.57
2019-04-22T08:11:51.602Z,28.33
2019-04-22T08:14:24.533Z,27.73
2019-04-22T08:16:51.340Z,25.00
2019-04-22T08:19:28.705Z,20.67
2019-04-22T08:21:57.086Z,20.30
2019-04-22T08:24:28.587Z,20.07
2019-04-22T08:27:00.909Z,18.57
2019-04-22T08:29:37.674Z,19.57
2019-04-22T08:31:59.497Z,20.60
2019-04-22T08:34:47.547Z,18.43
2019-04-22T08:37:35.671Z,19.53
2019-04-22T08:39:39.154Z,18.63
2019-04-22T08:42:17.945Z,19.10
2019-04-22T08:45:01.152Z,22.53
2019-04-22T08:47:27.764Z,16.47
2019-04-22T08:49:56.845Z,18.30
2019-04-22T08:52:23.539Z,18.10
2019-04-22T08:57:31.617Z,21.60
2019-04-22T08:59:57.507Z,21.80
2019-04-22T09:02:32.434Z,19.83
2019-04-22T09:05:06.294Z,20.30
2019-04-22T09:07:31.493Z,21.27
2019-04-22T09:10:05.160Z,19.30
2019-04-22T09:12:51.778Z,17.33
2019-04-22T09:15:14.431Z,17.93
2019-04-22T09:17:40.308Z,18.17
2019-04-22T09:20:15.501Z,19.03
2019-04-22T09:22:47.083Z,18.40
2019-04-22T09:25:18.705Z,18.23
2019-04-22T09:27:52.088Z,17.33
2019-04-22T09:30:30.652Z,16.33
2019-04-22T09:33:11.105Z,15.53
2019-04-22T09:35:31.769Z,16.95
2019-04-22T09:38:12.698Z,16.15
2019-04-22T09:40:28.931Z,15.63
2019-04-22T09:43:03.226Z,15.40
2019-04-22T09:45:34.450Z,13.58
2019-04-22T09:48:08.679Z,15.88
2019-04-22T09:50:46.431Z,16.23
2019-04-22T09:53:14.865Z,12.88
2019-04-22T09:55:43.069Z,12.28
2019-04-22T09:58:16.276Z,14.45
2019-04-22T10:01:24.349Z,13.58
2019-04-22T10:03:56.461Z,17.02
2019-04-22T10:06:30.923Z,16.65
2019-04-22T10:09:12.692Z,11.43
2019-04-22T10:11:35.026Z,12.93
2019-04-22T10:14:01.106Z,12.28
2019-04-22T10:19:08.071Z,9.28
2019-04-22T10:24:09.049Z,13.00
2019-04-22T10:26:50.373Z,10.72
2019-04-22T10:31:46.589Z,10.98
2019-04-22T10:34:05.602Z,10.45
2019-04-22T10:36:25.608Z,9.83
2019-04-22T10:38:56.040Z,11.15
2019-04-22T10:41:26.567Z,10.25
2019-04-22T10:43:57.105Z,10.20
2019-04-22T10:46:28.329Z,9.15
2019-04-22T10:49:00.000Z,11.22
2019-04-22T10:51:31.136Z,11.22
2019-04-22T10:54:01.871Z,11.12
2019-04-22T10:56:32.697Z,10.10
2019-04-22T10:59:04.709Z,10.78
2019-04-22T11:01:38.402Z,11.95
2019-04-22T11:04:08.950Z,8.70
2019-04-22T11:06:50.335Z,8.35
2019-04-22T11:09:12.461Z,7.20
2019-04-22T11:11:51.094Z,7.73
2019-04-22T11:14:15.108Z,8.53
2019-04-22T11:16:45.639Z,6.62
2019-04-22T11:19:17.335Z,6.83
2019-04-22T11:21:59.936Z,6.22
2019-04-22T11:24:21.057Z,7.65
2019-04-22T11:26:52.764Z,8.40
2019-04-22T11:29:25.468Z,5.78
2019-04-22T11:31:56.636Z,5.70
2019-04-22T11:34:27.092Z,5.90
2019-04-22T11:36:58.877Z,8.00
2019-04-22T11:39:31.197Z,10.25
2019-04-22T11:42:09.903Z,8.23
2019-04-22T11:44:41.237Z,5.85
2019-04-22T11:47:11.890Z,6.90
2019-04-22T11:49:43.803Z,5.95
2019-04-22T11:52:16.424Z,6.35
2019-04-22T11:54:46.777Z,6.87
2019-04-22T11:57:17.334Z,5.83
2019-04-22T11:59:48.963Z,6.40
2019-04-22T12:02:21.962Z,5.50
2019-04-22T12:04:53.923Z,5.83
2019-04-22T12:07:24.571Z,5.70
2019-04-22T12:09:55.614Z,7.50
2019-04-22T12:12:27.718Z,5.08
2019-04-22T12:14:58.750Z,7.20
2019-04-22T12:17:29.854Z,7.47
2019-04-22T12:20:03.315Z,7.80
2019-04-22T12:22:33.987Z,7.70
2019-04-22T12:25:10.561Z,9.65
2019-04-22T12:27:41.305Z,10.28
2019-04-22T12:30:12.455Z,8.88
2019-04-22T12:32:43.591Z,8.30
2019-04-22T12:35:15.635Z,5.72
2019-04-22T12:37:52.911Z,7.60
2019-04-22T12:40:30.183Z,5.20
2019-04-22T12:42:53.227Z,5.90
2019-04-22T12:45:24.616Z,7.87
2019-04-22T12:47:56.219Z,7.08
2019-04-22T12:50:32.798Z,9.38
2019-04-22T12:53:03.666Z,7.37
2019-04-22T12:55:32.393Z,6.10
2019-04-22T12:58:03.023Z,6.17
2019-04-22T13:00:34.323Z,6.95
2019-04-22T13:03:05.262Z,8.03
2019-04-22T13:05:37.455Z,8.53
2019-04-22T13:08:09.578Z,6.60
2019-04-22T13:10:49.526Z,9.98
2019-04-22T13:13:13.222Z,5.97
2019-04-22T13:15:44.595Z,5.90
2019-04-22T13:18:26.153Z,7.45
2019-04-22T13:20:48.485Z,5.08
2019-04-22T13:23:19.881Z,6.80
2019-04-22T13:25:50.408Z,6.12
2019-04-22T13:28:21.098Z,5.33
2019-04-22T13:30:52.694Z,6.58
2019-04-22T13:33:23.422Z,9.03
2019-04-22T13:35:54.378Z,7.15
2019-04-22T13:38:26.896Z,8.25
2019-04-22T13:41:07.227Z,7.20
2019-04-22T13:43:31.113Z,9.08
2019-04-22T13:46:01.886Z,6.87
2019-04-22T13:48:53.324Z,6.70
2019-04-22T13:51:43.109Z,5.17
2019-04-22T13:54:36.854Z,4.95
2019-04-22T13:56:30.344Z,5.00
2019-04-22T13:58:52.477Z,8.30
2019-04-22T14:01:16.514Z,7.35
2019-04-22T14:04:02.714Z,7.90
2019-04-22T14:06:34.537Z,7.85
2019-04-22T14:09:07.577Z,6.83
2019-04-22T14:11:48.916Z,9.05
2019-04-22T14:14:10.950Z,5.65
2019-04-22T14:16:42.793Z,8.25
2019-04-22T14:19:14.033Z,7.45
2019-04-22T14:21:47.375Z,5.95
2019-04-22T14:24:17.820Z,8.03
2019-04-22T14:27:01.287Z,9.38
2019-04-22T14:29:21.920Z,8.77
2019-04-22T14:32:04.246Z,6.22
2019-04-22T14:34:26.412Z,7.17
2019-04-22T14:36:57.345Z,5.67
2019-04-22T14:39:28.068Z,7.53
2019-04-22T14:42:19.466Z,5.47
2019-04-22T14:45:18.931Z,6.97
2019-04-22T14:47:25.751Z,5.08
2019-04-22T14:49:58.929Z,5.37
2019-04-22T14:52:44.507Z,5.00
2019-04-22T14:54:51.643Z,8.38
2019-04-22T14:57:12.984Z,4.67
2019-04-22T14:59:43.987Z,4.58
2019-04-22T15:02:16.083Z,5.65
2019-04-22T15:04:47.984Z,7.72
2019-04-22T15:07:19.196Z,4.95
2019-04-22T15:09:50.258Z,7.00
2019-04-22T15:12:33.665Z,7.78
2019-04-22T15:14:53.455Z,5.97
2019-04-22T15:17:33.437Z,7.53
2019-04-22T15:20:21.978Z,8.25
2019-04-22T15:22:52.746Z,4.50
2019-04-22T15:25:24.185Z,6.45
2019-04-22T15:27:55.299Z,4.13
2019-04-22T15:30:25.782Z,4.62
2019-04-22T15:32:57.211Z,5.20
2019-04-22T15:35:29.100Z,7.12
2019-04-22T15:37:59.558Z,9.30
2019-04-22T15:40:30.974Z,7.22
2019-04-22T15:43:02.632Z,8.20
2019-04-22T15:45:34.916Z,5.13
2019-04-22T15:48:18.805Z,5.20
2019-04-22T15:50:50.648Z,6.62
2019-04-22T15:53:22.060Z,5.83
2019-04-22T15:55:52.686Z,4.97
2019-04-22T15:58:23.828Z,4.97
2019-04-22T16:01:08.328Z,6.17
2019-04-22T16:03:26.896Z,5.37
2019-04-22T16:05:57.634Z,5.40
2019-04-22T16:08:29.349Z,5.70
2019-04-22T16:11:00.234Z,4.03
2019-04-22T16:13:34.759Z,4.17
2019-04-22T16:16:04.691Z,5.00
2019-04-22T16:18:36.146Z,5.30
2019-04-22T16:21:07.254Z,3.50
2019-04-22T16:23:44.688Z,4.63
2019-04-22T16:26:22.082Z,3.20
2019-04-22T16:28:55.633Z,7.53
2019-04-22T16:31:25.090Z,3.73
2019-04-22T16:33:56.303Z,5.03
2019-04-22T16:36:27.011Z,4.90
2019-04-22T16:38:57.611Z,3.10
2019-04-22T16:41:28.690Z,4.00
2019-04-22T16:44:00.663Z,3.57
2019-04-22T16:46:31.877Z,4.80
2019-04-22T16:49:03.414Z,4.33
2019-04-22T16:51:33.917Z,6.90
2019-04-22T16:54:06.361Z,3.87
2019-04-22T16:56:37.268Z,5.00
2019-04-22T16:59:08.806Z,3.67
2019-04-22T17:02:02.152Z,4.23
2019-04-22T17:04:43.018Z,11.73
2019-04-22T17:07:16.146Z,5.90
2019-04-22T17:09:47.881Z,3.10
2019-04-22T17:12:19.598Z,3.37
2019-04-22T17:14:56.291Z,4.57
2019-04-22T17:17:22.404Z,7.17
2019-04-22T17:19:53.254Z,2.83
2019-04-22T17:22:23.950Z,4.53
2019-04-22T17:24:54.456Z,4.00
2019-04-22T17:27:26.476Z,3.43
2019-04-22T17:29:57.059Z,4.50
2019-04-22T17:32:28.795Z,5.33
2019-04-22T17:34:59.440Z,5.70
2019-04-22T17:37:35.166Z,6.37
2019-04-22T17:42:55.441Z,2.93
2019-04-22T17:46:07.197Z,6.10
2019-04-22T17:49:15.354Z,2.77
2019-04-22T17:52:09.070Z,4.70
2019-04-22T17:54:38.393Z,3.50
2019-04-22T17:57:09.829Z,5.47
2019-04-22T17:59:41.863Z,3.90
2019-04-22T18:02:13.365Z,3.30
2019-04-22T18:04:35.257Z,6.00
2019-04-22T18:07:27.439Z,4.60
2019-04-22T18:10:16.166Z,6.63
2019-04-22T18:12:33.792Z,2.87
2019-04-22T18:14:59.669Z,4.07
2019-04-22T18:17:29.115Z,4.47
2019-04-22T18:19:54.582Z,5.80
2019-04-22T18:22:21.943Z,5.07
2019-04-22T18:24:56.795Z,3.77
2019-04-22T18:30:07.864Z,6.67
2019-04-22T18:32:38.046Z,5.70
2019-04-22T18:35:11.491Z,3.80
2019-04-22T18:37:42.457Z,3.77
2019-04-22T18:40:15.006Z,4.97
2019-04-22T18:42:52.533Z,4.60
2019-04-22T18:45:37.464Z,4.27
2019-04-22T18:47:45.451Z,3.50
2019-04-22T18:50:34.112Z,6.40
2019-04-22T18:53:18.910Z,6.60
2019-04-22T18:56:03.880Z,3.47
2019-04-22T18:58:33.759Z,6.20
2019-04-22T19:00:48.873Z,3.50
2019-04-22T19:03:26.292Z,4.37
2019-04-22T19:06:25.930Z,4.73
2019-04-22T19:08:55.431Z,3.17
2019-04-22T19:11:17.374Z,4.40
2019-04-22T19:14:03.288Z,3.20
2019-04-22T19:16:32.077Z,4.20
2019-04-22T19:19:18.541Z,3.27
2019-04-22T19:21:25.599Z,3.77
2019-04-22T19:23:54.028Z,4.30
2019-04-22T19:26:42.544Z,4.87
2019-04-22T19:29:00.310Z,3.10
2019-04-22T19:31:34.710Z,5.63
2019-04-22T19:34:09.422Z,3.73
2019-04-22T19:36:40.823Z,8.10
2019-04-22T19:39:07.546Z,4.13
2019-04-22T19:41:45.448Z,4.83
2019-04-22T19:44:14.270Z,3.83
2019-04-22T19:46:53.126Z,3.30
2019-04-22T19:49:24.169Z,6.30
2019-04-22T19:51:58.999Z,6.13
2019-04-22T19:54:26.123Z,4.40
2019-04-22T19:56:48.562Z,3.20
2019-04-22T19:59:25.313Z,5.50
2019-04-22T20:02:07.374Z,2.97
2019-04-22T20:05:05.995Z,8.17
2019-04-22T20:07:40.605Z,5.17
2019-04-22T20:10:19.063Z,2.83
2019-04-22T20:12:43.658Z,3.00
2019-04-22T20:15:15.633Z,4.60
2019-04-22T20:18:11.678Z,4.00
2019-04-22T20:20:28.831Z,10.13
2019-04-22T20:22:52.405Z,3.87
2019-04-22T20:25:16.581Z,5.17
2019-04-22T20:28:01.311Z,6.17
2019-04-22T20:30:32.874Z,6.43
2019-04-22T20:32:59.361Z,3.63
2019-04-22T20:35:39.090Z,3.67
2019-04-22T20:38:09.296Z,5.07
2019-04-22T20:40:40.003Z,3.20
2019-04-22T20:43:21.968Z,5.10
2019-04-22T20:45:46.468Z,9.10
2019-04-22T20:48:07.901Z,4.27
2019-04-22T20:50:54.630Z,2.83
2019-04-22T20:53:25.824Z,6.53
2019-04-22T20:55:55.228Z,2.90
2019-04-22T20:58:29.771Z,4.00
2019-04-22T21:00:53.047Z,3.33
2019-04-22T21:03:22.372Z,6.33
2019-04-22T21:05:54.089Z,2.80
2019-04-22T21:08:38.990Z,6.70
2019-04-22T21:11:04.766Z,2.80
2019-04-22T21:13:31.774Z,2.73
2019-04-22T21:16:15.289Z,4.07
2019-04-22T21:18:39.037Z,2.77
2019-04-22T21:21:23.970Z,4.17
2019-04-22T21:23:42.111Z,4.53
2019-04-22T21:26:19.534Z,5.67
2019-04-22T21:28:47.440Z,3.83
2019-04-22T21:31:29.553Z,3.10
2019-04-22T21:34:02.119Z,4.07
2019-04-22T21:38:58.917Z,3.10
2019-04-22T21:41:30.671Z,3.43
2019-04-22T21:44:04.203Z,3.53
2019-04-22T21:46:43.730Z,3.67
2019-04-22T21:49:12.900Z,2.90
2019-04-22T21:51:43.498Z,3.70
2019-04-22T21:57:07.531Z,4.37
2019-04-22T21:59:32.080Z,3.73
2019-04-22T22:02:12.324Z,3.40
2019-04-22T22:04:38.404Z,4.23
2019-04-22T22:07:03.169Z,12.13
2019-04-22T22:09:48.997Z,3.73
2019-04-22T22:12:17.112Z,1.97
2019-04-22T22:14:50.115Z,3.47
2019-04-22T22:17:22.670Z,3.60
2019-04-22T22:19:52.916Z,5.20
2019-04-22T22:22:42.107Z,4.03
2019-04-22T22:25:01.437Z,5.73
2019-04-22T22:27:34.236Z,4.33
2019-04-22T22:30:18.781Z,5.27
2019-04-22T22:32:33.767Z,1.90
2019-04-22T22:35:10.123Z,2.40
2019-04-22T22:37:28.414Z,4.70
2019-04-22T22:40:00.880Z,2.30
2019-04-22T22:42:31.309Z,4.30
2019-04-22T22:45:08.891Z,2.00
2019-04-22T22:47:45.804Z,3.37
2019-04-22T22:50:23.294Z,3.33
2019-04-22T22:53:11.223Z,5.63
2019-04-22T22:55:29.638Z,4.23
2019-04-22T22:58:06.253Z,5.97
2019-04-22T23:00:33.898Z,2.83
2019-04-22T23:03:38.077Z,2.53
2019-04-22T23:05:50.423Z,2.57
2019-04-22T23:08:20.414Z,7.47
2019-04-22T23:11:05.164Z,2.43
2019-04-22T23:13:25.816Z,3.37
2019-04-22T23:15:50.924Z,2.20
2019-04-22T23:18:07.827Z,2.33
2019-04-22T23:20:43.958Z,5.37
2019-04-22T23:23:33.400Z,2.23
2019-04-22T23:26:10.547Z,2.10
2019-04-22T23:28:43.070Z,6.73
2019-04-22T23:31:29.496Z,4.43
2019-04-22T23:34:18.492Z,5.30
2019-04-22T23:37:19.122Z,3.90
2019-04-22T23:42:27.381Z,3.50
2019-04-22T23:45:03.835Z,2.80
2019-04-22T23:47:26.536Z,3.77
2019-04-22T23:50:01.404Z,3.63
2019-04-22T23:52:43.550Z,2.60
2019-04-22T23:55:17.769Z,5.57
2019-04-22T23:57:55.346Z,3.43
